Time;durP1;ratioP1;P1;durP2;ratioP2;P2;SDS_P1;SDS_P2;PMS_P1;PMS_P2;Temp;Humidity;BMP_temperature;BMP_pressure;BME280_temperature;BME280_humidity;BME280_pressure;Samples;Min_cycle;Max_cycle;Signal;HPM_P1;HPM_P2
2024/01/04 00:01:25;;;;;;;1.33;1.10;;;9.20;99.90;;;;;;4996558;28;20837;-64
2024/01/04 00:03:50;;;;;;;4.27;1.10;;;9.20;99.90;;;;;;4984438;28;20212;-62
2024/01/04 00:06:17;;;;;;;2.03;1.13;;;9.20;99.90;;;;;;4989009;28;20184;-61
2024/01/04 00:08:43;;;;;;;6.00;1.27;;;9.20;99.90;;;;;;4996035;28;20215;-63
2024/01/04 00:11:09;;;;;;;2.57;1.37;;;9.20;99.90;;;;;;5003872;28;20474;-62
2024/01/04 00:13:34;;;;;;;2.47;1.47;;;9.20;99.90;;;;;;4996219;28;20490;-63
2024/01/04 00:16:00;;;;;;;5.10;1.50;;;9.20;99.90;;;;;;4994194;28;20707;-61
2024/01/04 00:18:26;;;;;;;7.67;1.43;;;9.20;99.90;;;;;;4990685;28;20591;-63
2024/01/04 00:20:51;;;;;;;2.60;1.03;;;9.20;99.90;;;;;;4993145;28;20599;-63
2024/01/04 00:23:17;;;;;;;3.17;1.10;;;9.20;99.90;;;;;;4999887;28;20204;-63
2024/01/04 00:25:42;;;;;;;1.50;1.40;;;9.10;99.90;;;;;;5007022;28;20172;-62
2024/01/04 00:28:08;;;;;;;2.10;1.20;;;9.10;99.90;;;;;;4991909;28;20670;-62
2024/01/04 00:30:35;;;;;;;0.97;0.80;;;9.10;99.90;;;;;;4995446;28;20602;-64
2024/01/04 00:33:00;;;;;;;3.27;1.00;;;9.10;99.90;;;;;;5005578;28;20276;-63
2024/01/04 00:35:26;;;;;;;2.37;1.27;;;9.00;99.90;;;;;;5005422;28;20506;-62
2024/01/04 00:37:52;;;;;;;3.27;1.13;;;9.00;99.90;;;;;;4994907;28;20189;-64
2024/01/04 00:40:18;;;;;;;2.50;0.97;;;9.00;99.90;;;;;;5002540;28;20208;-64
2024/01/04 00:42:44;;;;;;;2.40;1.20;;;9.00;99.90;;;;;;5010469;28;20819;-63
2024/01/04 00:45:09;;;;;;;3.23;2.67;;;9.00;99.90;;;;;;4995383;28;20424;-63
2024/01/04 00:47:35;;;;;;;3.33;2.60;;;9.00;99.90;;;;;;5000428;28;20192;-63
2024/01/04 00:50:01;;;;;;;3.63;2.10;;;9.00;99.90;;;;;;5003354;28;20248;-64
2024/01/04 00:52:26;;;;;;;5.13;2.93;;;9.00;99.90;;;;;;5000483;28;20305;-62
2024/01/04 00:54:52;;;;;;;5.83;2.50;;;9.00;99.90;;;;;;4999187;28;20691;-64
2024/01/04 00:57:18;;;;;;;5.23;2.43;;;9.10;99.90;;;;;;4993961;28;20192;-63
2024/01/04 00:59:43;;;;;;;2.70;2.30;;;9.00;99.90;;;;;;4997686;28;20200;-64
2024/01/04 01:02:09;;;;;;;2.07;1.57;;;9.10;99.90;;;;;;4992573;28;20232;-63
2024/01/04 01:04:36;;;;;;;2.87;1.33;;;9.10;99.90;;;;;;4993255;28;20208;-64
2024/01/04 01:07:01;;;;;;;3.90;1.33;;;9.10;99.90;;;;;;4996605;28;20173;-64
2024/01/04 01:09:27;;;;;;;1.73;1.20;;;9.10;99.90;;;;;;5000173;28;20475;-63
2024/01/04 01:11:53;;;;;;;2.30;1.70;;;9.10;99.90;;;;;;4994409;28;20256;-62
2024/01/04 01:14:18;;;;;;;2.97;1.80;;;9.10;99.90;;;;;;4995966;28;20183;-64
2024/01/04 01:16:44;;;;;;;4.10;2.00;;;9.10;99.90;;;;;;4991012;28;20280;-64
2024/01/04 01:19:09;;;;;;;1.60;1.37;;;9.10;99.90;;;;;;4998270;28;20621;-64
2024/01/04 01:21:35;;;;;;;2.10;1.20;;;9.10;99.90;;;;;;4991421;28;20267;-63
2024/01/04 01:24:00;;;;;;;3.30;1.83;;;9.10;99.90;;;;;;5007604;28;20689;-64
2024/01/04 01:26:26;;;;;;;2.20;1.97;;;9.10;99.90;;;;;;5002411;28;20661;-64
2024/01/04 01:28:52;;;;;;;4.87;1.30;;;9.00;99.90;;;;;;4999720;28;20186;-64
2024/01/04 01:31:17;;;;;;;2.07;1.30;;;9.00;99.90;;;;;;5005187;28;20207;-63
2024/01/04 01:33:44;;;;;;;1.73;1.17;;;9.10;99.90;;;;;;5002689;28;20194;-64
2024/01/04 01:36:10;;;;;;;3.60;1.50;;;9.00;99.90;;;;;;5007993;28;20571;-64
2024/01/04 01:38:35;;;;;;;2.43;2.07;;;9.10;99.90;;;;;;5004054;28;20425;-63
2024/01/04 01:41:01;;;;;;;3.00;1.53;;;9.10;99.90;;;;;;5008476;28;20744;-64
2024/01/04 01:43:27;;;;;;;2.60;1.20;;;9.10;99.90;;;;;;5005852;28;20557;-64
2024/01/04 01:45:53;;;;;;;6.50;1.10;;;9.10;99.90;;;;;;4997423;28;20454;-63
2024/01/04 01:48:19;;;;;;;2.70;0.90;;;9.10;99.90;;;;;;5005367;28;20179;-63
2024/01/04 01:50:45;;;;;;;2.10;1.20;;;9.10;99.90;;;;;;4997623;28;20616;-63
2024/01/04 01:53:11;;;;;;;1.00;0.90;;;9.10;99.90;;;;;;5001304;28;20416;-63
2024/01/04 01:55:37;;;;;;;2.93;1.00;;;9.10;99.90;;;;;;5004180;28;20176;-62
2024/01/04 01:58:04;;;;;;;2.40;1.17;;;9.10;99.90;;;;;;4998899;28;20515;-62
2024/01/04 02:00:31;;;;;;;1.60;1.00;;;9.10;99.90;;;;;;5003344;28;20201;-62
2024/01/04 02:02:57;;;;;;;1.40;1.00;;;9.10;99.90;;;;;;4992981;28;20963;-65
2024/01/04 02:05:22;;;;;;;2.20;1.00;;;9.10;99.90;;;;;;4987014;28;20431;-63
2024/01/04 02:07:49;;;;;;;1.90;0.93;;;9.10;99.90;;;;;;5000049;28;20425;-62
2024/01/04 02:10:14;;;;;;;1.50;1.10;;;9.10;99.90;;;;;;5002879;28;20339;-63
2024/01/04 02:12:40;;;;;;;1.60;0.90;;;9.10;99.90;;;;;;5011676;28;20989;-62
2024/01/04 02:15:07;;;;;;;2.80;1.20;;;9.10;99.90;;;;;;5003271;28;20280;-63
2024/01/04 02:17:34;;;;;;;0.80;0.80;;;9.10;99.90;;;;;;4996599;28;20518;-63
2024/01/04 02:20:00;;;;;;;1.37;0.90;;;9.10;99.90;;;;;;5001276;28;20460;-63
2024/01/04 02:22:25;;;;;;;2.13;1.93;;;9.00;99.90;;;;;;4993872;28;20452;-63
2024/01/04 02:24:51;;;;;;;2.90;1.00;;;9.00;99.90;;;;;;5008757;28;20179;-62
2024/01/04 02:27:17;;;;;;;3.00;1.00;;;9.00;99.90;;;;;;4992665;28;20169;-64
2024/01/04 02:29:43;;;;;;;2.30;1.20;;;9.00;99.90;;;;;;5002425;28;20694;-63
2024/01/04 02:32:11;;;;;;;1.60;1.10;;;9.00;99.90;;;;;;4999666;28;20412;-62
2024/01/04 02:34:37;;;;;;;1.13;1.00;;;9.00;99.90;;;;;;4984181;28;20170;-63
2024/01/04 02:37:06;;;;;;;1.73;1.00;;;9.00;99.90;;;;;;4987479;28;20515;-62
2024/01/04 02:39:34;;;;;;;1.90;1.30;;;9.00;99.90;;;;;;4991752;28;20457;-63
2024/01/04 02:41:59;;;;;;;4.00;1.17;;;9.00;99.90;;;;;;4997327;28;20909;-62
2024/01/04 02:44:25;;;;;;;1.00;0.90;;;9.00;99.90;;;;;;4992003;28;20458;-62
2024/01/04 02:46:51;;;;;;;1.57;0.90;;;9.00;99.90;;;;;;4999403;28;20180;-64
2024/01/04 02:49:20;;;;;;;1.00;0.90;;;9.00;99.90;;;;;;4997061;28;20259;-63
2024/01/04 02:51:46;;;;;;;2.10;1.00;;;9.00;99.90;;;;;;4988460;28;20420;-62
2024/01/04 02:54:11;;;;;;;1.80;1.00;;;9.00;99.90;;;;;;4999569;28;20408;-61
2024/01/04 02:56:37;;;;;;;2.60;0.90;;;9.00;99.90;;;;;;5002601;28;20172;-62
2024/01/04 02:59:04;;;;;;;1.93;1.20;;;9.00;99.90;;;;;;5007100;28;20527;-63
2024/01/04 03:01:33;;;;;;;2.60;1.03;;;9.00;99.90;;;;;;5004307;28;20938;-62
2024/01/04 03:04:01;;;;;;;1.87;1.27;;;9.00;99.90;;;;;;5001468;28;20462;-64
2024/01/04 03:06:27;;;;;;;0.87;0.80;;;9.00;99.90;;;;;;4999457;28;20413;-63
2024/01/04 03:08:54;;;;;;;0.80;0.80;;;9.00;99.90;;;;;;5004665;28;20925;-63
2024/01/04 03:11:22;;;;;;;1.87;0.80;;;9.00;99.90;;;;;;5005632;28;20424;-63
2024/01/04 03:13:48;;;;;;;1.77;0.80;;;9.00;99.90;;;;;;5005323;28;20419;-63
2024/01/04 03:16:14;;;;;;;1.27;0.90;;;8.90;99.90;;;;;;4991818;28;20424;-63
2024/01/04 03:18:40;;;;;;;1.60;1.00;;;8.90;99.90;;;;;;4995799;28;20503;-64
2024/01/04 03:21:09;;;;;;;0.80;0.77;;;8.80;99.90;;;;;;4992147;28;20437;-63
2024/01/04 03:23:34;;;;;;;1.67;0.90;;;8.80;99.90;;;;;;5005349;28;20783;-63
2024/01/04 03:26:00;;;;;;;1.00;0.90;;;8.70;99.90;;;;;;5003257;28;20508;-64
2024/01/04 03:28:26;;;;;;;2.73;1.10;;;8.60;99.90;;;;;;5003881;28;20467;-64
2024/01/04 03:30:52;;;;;;;2.10;1.20;;;8.50;99.90;;;;;;5004222;28;20567;-64
2024/01/04 03:33:18;;;;;;;2.20;1.00;;;8.40;99.90;;;;;;5002928;28;20613;-63
2024/01/04 03:35:46;;;;;;;1.00;0.90;;;8.30;99.90;;;;;;4995037;28;20474;-64
2024/01/04 03:38:12;;;;;;;0.80;0.80;;;8.30;99.90;;;;;;4992757;28;20187;-63
2024/01/04 03:40:39;;;;;;;2.93;1.10;;;8.30;99.90;;;;;;5005310;28;20435;-64
2024/01/04 03:43:05;;;;;;;1.87;1.07;;;8.30;99.90;;;;;;5002476;28;20822;-63
2024/01/04 03:45:31;;;;;;;1.40;1.20;;;8.30;99.90;;;;;;5004496;28;20423;-64
2024/01/04 03:47:58;;;;;;;3.07;1.10;;;8.30;99.90;;;;;;4999439;28;20424;-64
2024/01/04 03:50:27;;;;;;;2.20;1.00;;;8.20;99.90;;;;;;4998908;28;20938;-64
2024/01/04 03:52:55;;;;;;;6.03;1.07;;;8.20;99.90;;;;;;5005605;28;20423;-64
2024/01/04 03:55:21;;;;;;;1.53;1.00;;;8.20;99.90;;;;;;4991091;28;20781;-62
2024/01/04 03:57:47;;;;;;;1.10;1.00;;;8.30;99.90;;;;;;5002393;28;20415;-64
2024/01/04 04:00:13;;;;;;;1.00;0.80;;;8.30;99.90;;;;;;4992613;28;20228;-65
2024/01/04 04:02:39;;;;;;;2.40;1.27;;;8.30;99.90;;;;;;4992596;28;20969;-64
2024/01/04 04:05:05;;;;;;;1.93;1.03;;;8.20;99.90;;;;;;4997320;28;20521;-63
2024/01/04 04:07:34;;;;;;;1.10;0.93;;;8.20;99.90;;;;;;4993865;28;20422;-63
2024/01/04 04:10:02;;;;;;;0.80;0.80;;;8.20;99.90;;;;;;5006048;28;20438;-64
2024/01/04 04:12:28;;;;;;;2.30;1.20;;;8.20;99.90;;;;;;4991821;28;20433;-63
2024/01/04 04:14:54;;;;;;;2.93;1.73;;;8.20;99.90;;;;;;5005416;28;20414;-64
2024/01/04 04:17:25;;;;;;;1.10;0.93;;;8.20;99.90;;;;;;5000114;28;20414;-64
2024/01/04 04:20:02;;;;;;;0.87;0.87;;;8.20;99.90;;;;;;5003164;28;20980;-63
2024/01/04 04:22:31;;;;;;;1.23;1.13;;;8.20;99.90;;;;;;5010178;28;20461;-64
2024/01/04 04:24:57;;;;;;;3.37;1.10;;;8.30;99.90;;;;;;5001345;28;20440;-63
2024/01/04 04:27:25;;;;;;;1.20;1.10;;;8.30;99.90;;;;;;5002994;28;20494;-63
2024/01/04 04:29:51;;;;;;;1.30;0.93;;;8.30;99.90;;;;;;5001339;28;20431;-62
2024/01/04 04:32:18;;;;;;;3.70;0.97;;;8.30;99.90;;;;;;5009677;28;20422;-63
2024/01/04 04:34:43;;;;;;;1.10;1.00;;;8.30;99.90;;;;;;5000642;28;20499;-63
2024/01/04 04:37:09;;;;;;;1.43;1.00;;;8.30;99.90;;;;;;5005227;28;20486;-63
2024/01/04 04:39:35;;;;;;;1.50;1.40;;;8.30;99.90;;;;;;4998913;28;21693;-63
2024/01/04 04:42:00;;;;;;;2.00;1.00;;;8.30;99.90;;;;;;4998871;28;20182;-63
2024/01/04 04:44:26;;;;;;;1.10;1.00;;;8.30;99.90;;;;;;5002790;28;20212;-61
2024/01/04 04:46:56;;;;;;;1.00;0.90;;;8.30;99.90;;;;;;4998475;28;20173;-62
2024/01/04 04:49:22;;;;;;;0.80;0.77;;;8.30;99.90;;;;;;4995472;28;20204;-61
2024/01/04 04:51:49;;;;;;;0.90;0.90;;;8.30;99.90;;;;;;5011052;28;20429;-64
2024/01/04 04:54:16;;;;;;;1.83;1.30;;;8.30;99.90;;;;;;5003443;28;20326;-61
2024/01/04 04:56:42;;;;;;;1.47;1.20;;;8.30;99.90;;;;;;4991956;28;20441;-64
2024/01/04 04:59:08;;;;;;;1.33;0.90;;;8.30;99.90;;;;;;4994436;28;20533;-63
2024/01/04 05:01:34;;;;;;;1.77;1.27;;;8.40;99.90;;;;;;4991846;28;20623;-62
2024/01/04 05:03:59;;;;;;;1.43;1.20;;;8.40;99.90;;;;;;5002255;28;20461;-62
2024/01/04 05:06:25;;;;;;;2.50;1.30;;;8.40;99.90;;;;;;5003747;28;20697;-62
2024/01/04 05:08:51;;;;;;;1.60;1.30;;;8.40;99.90;;;;;;4997410;28;20493;-62
2024/01/04 05:11:16;;;;;;;0.90;0.90;;;8.40;99.90;;;;;;4995110;28;20224;-63
2024/01/04 05:13:42;;;;;;;1.30;1.20;;;8.40;99.90;;;;;;4993288;28;20175;-63
2024/01/04 05:16:07;;;;;;;1.40;1.30;;;8.40;99.90;;;;;;5004078;28;20649;-61
2024/01/04 05:18:33;;;;;;;1.20;1.10;;;8.40;99.90;;;;;;4996477;28;20173;-63
2024/01/04 05:20:58;;;;;;;1.80;1.40;;;8.30;99.90;;;;;;4996647;28;20200;-60
2024/01/04 05:23:24;;;;;;;2.20;2.10;;;8.40;99.90;;;;;;5001186;28;20227;-63
2024/01/04 05:25:50;;;;;;;2.10;1.63;;;8.30;99.90;;;;;;5007884;28;20172;-63
2024/01/04 05:28:19;;;;;;;2.63;1.70;;;8.30;99.90;;;;;;5005226;28;20967;-64
2024/01/04 05:30:54;;;;;;;2.30;1.40;;;8.30;99.90;;;;;;4998183;28;20203;-64
2024/01/04 05:33:30;;;;;;;8.50;1.40;;;8.30;99.90;;;;;;4998518;28;20407;-64
2024/01/04 05:35:57;;;;;;;2.30;1.77;;;8.20;99.90;;;;;;5001897;28;20425;-64
2024/01/04 05:38:23;;;;;;;2.17;1.90;;;8.20;99.90;;;;;;5001389;28;20774;-64
2024/01/04 05:40:49;;;;;;;1.80;1.70;;;8.10;99.90;;;;;;5008496;28;20458;-64
2024/01/04 05:43:15;;;;;;;1.57;1.47;;;8.10;99.90;;;;;;5003614;28;20827;-64
2024/01/04 05:45:41;;;;;;;1.77;1.37;;;8.10;99.90;;;;;;5006916;28;20179;-64
2024/01/04 05:48:07;;;;;;;1.93;1.70;;;8.10;99.90;;;;;;5003734;28;20411;-64
2024/01/04 05:50:35;;;;;;;3.60;2.30;;;8.10;99.90;;;;;;5005317;28;20451;-63
2024/01/04 05:53:01;;;;;;;2.40;1.70;;;8.10;99.90;;;;;;5008390;28;20411;-63
2024/01/04 05:55:27;;;;;;;2.10;1.90;;;8.00;99.90;;;;;;5003173;28;20929;-66
2024/01/04 05:57:53;;;;;;;2.93;1.73;;;8.10;99.90;;;;;;5006841;28;20184;-65
2024/01/04 06:00:19;;;;;;;2.70;1.63;;;8.10;99.90;;;;;;5002054;28;21039;-65
2024/01/04 06:02:44;;;;;;;2.63;1.80;;;8.10;99.90;;;;;;4992102;28;21044;-65
2024/01/04 06:05:10;;;;;;;2.60;2.00;;;8.10;99.90;;;;;;4993271;28;20436;-65
2024/01/04 06:07:36;;;;;;;1.43;1.33;;;8.00;99.90;;;;;;5002583;28;20176;-65
2024/01/04 06:10:02;;;;;;;3.37;1.73;;;8.00;99.90;;;;;;4999945;28;20543;-64
2024/01/04 06:12:28;;;;;;;3.43;2.20;;;8.00;99.90;;;;;;5000400;28;20876;-65
2024/01/04 06:14:57;;;;;;;1.80;1.70;;;7.90;99.90;;;;;;5003727;28;20428;-65
2024/01/04 06:17:23;;;;;;;6.50;1.70;;;8.00;99.90;;;;;;5001497;28;20580;-65
2024/01/04 06:19:51;;;;;;;3.60;1.53;;;7.90;99.90;;;;;;5005342;28;20546;-65
2024/01/04 06:22:17;;;;;;;1.60;1.50;;;7.90;99.90;;;;;;4996593;28;20439;-65
2024/01/04 06:24:43;;;;;;;1.63;1.53;;;8.00;99.90;;;;;;5005922;28;21126;-65
2024/01/04 06:27:09;;;;;;;1.90;1.80;;;7.90;99.90;;;;;;5008095;28;20177;-64
2024/01/04 06:29:35;;;;;;;2.13;1.77;;;8.00;99.90;;;;;;5002715;28;20199;-65
2024/01/04 06:32:08;;;;;;;2.20;2.00;;;7.90;99.90;;;;;;5006185;28;20453;-65
2024/01/04 06:34:39;;;;;;;2.70;1.50;;;8.00;99.90;;;;;;4999521;28;20445;-64
2024/01/04 06:37:07;;;;;;;2.10;1.33;;;8.00;99.90;;;;;;4998422;28;20446;-65
2024/01/04 06:39:33;;;;;;;2.10;1.90;;;8.00;99.90;;;;;;4994102;28;20945;-64
2024/01/04 06:42:04;;;;;;;5.03;1.50;;;8.00;99.90;;;;;;5000146;28;20430;-65
2024/01/04 06:44:34;;;;;;;2.03;1.30;;;8.00;99.90;;;;;;5004827;28;20446;-64
2024/01/04 06:47:00;;;;;;;1.60;1.20;;;7.90;99.90;;;;;;5000884;28;20423;-65
2024/01/04 06:49:25;;;;;;;2.07;1.50;;;7.90;99.90;;;;;;5002963;28;20710;-64
2024/01/04 06:51:51;;;;;;;1.20;1.00;;;7.80;99.90;;;;;;5001623;28;20756;-65
2024/01/04 06:54:17;;;;;;;1.47;1.20;;;7.80;99.90;;;;;;4998064;28;20578;-64
2024/01/04 06:56:43;;;;;;;1.20;0.90;;;7.80;99.90;;;;;;4996722;28;20822;-64
2024/01/04 06:59:09;;;;;;;1.63;1.13;;;7.70;99.90;;;;;;4990162;28;20180;-64
2024/01/04 07:01:35;;;;;;;0.87;0.87;;;7.60;99.90;;;;;;5003667;28;20564;-65
2024/01/04 07:04:03;;;;;;;1.40;1.00;;;7.60;99.90;;;;;;5000479;28;20936;-65
2024/01/04 07:06:29;;;;;;;1.20;1.10;;;7.60;99.90;;;;;;5000674;28;20175;-65
2024/01/04 07:08:55;;;;;;;1.10;0.90;;;7.50;99.90;;;;;;4996385;28;20419;-65
2024/01/04 07:11:21;;;;;;;1.10;1.00;;;7.40;99.90;;;;;;4996137;28;20881;-65
2024/01/04 07:13:52;;;;;;;0.90;0.90;;;7.30;99.90;;;;;;5006532;28;20929;-65
2024/01/04 07:16:18;;;;;;;1.10;1.00;;;7.20;99.90;;;;;;4995092;28;20477;-65
2024/01/04 07:18:46;;;;;;;0.90;0.90;;;7.10;99.90;;;;;;5001201;28;20912;-65
2024/01/04 07:21:13;;;;;;;1.10;1.00;;;7.00;99.90;;;;;;4998954;28;20292;-63
2024/01/04 07:23:39;;;;;;;1.00;0.93;;;6.90;99.90;;;;;;5007312;28;20604;-64
2024/01/04 07:26:06;;;;;;;1.53;0.97;;;6.90;99.90;;;;;;5003372;28;20513;-65
2024/01/04 07:28:35;;;;;;;1.83;1.10;;;6.80;99.90;;;;;;5007318;28;20431;-65
2024/01/04 07:31:00;;;;;;;1.73;0.90;;;6.80;99.90;;;;;;5004560;28;20431;-63
2024/01/04 07:33:26;;;;;;;1.30;1.20;;;6.80;99.90;;;;;;4991355;28;20906;-63
2024/01/04 07:35:52;;;;;;;1.10;1.00;;;6.80;99.90;;;;;;5008034;28;20632;-63
2024/01/04 07:38:19;;;;;;;1.77;1.00;;;6.70;99.90;;;;;;4995461;28;20621;-66
2024/01/04 07:40:45;;;;;;;2.30;1.00;;;6.70;99.90;;;;;;5008331;28;20501;-64
2024/01/04 07:43:13;;;;;;;1.20;1.10;;;6.60;99.90;;;;;;5003843;28;20536;-63
2024/01/04 07:45:38;;;;;;;0.80;0.80;;;6.60;99.90;;;;;;5000172;28;20420;-64
2024/01/04 07:48:11;;;;;;;3.17;1.53;;;6.50;99.90;;;;;;5000065;28;20924;-64
2024/01/04 07:50:40;;;;;;;3.10;1.20;;;6.60;99.90;;;;;;5006904;28;20826;-64
2024/01/04 07:53:06;;;;;;;1.33;1.10;;;6.50;99.90;;;;;;5007670;28;20543;-65
2024/01/04 07:55:32;;;;;;;1.10;1.00;;;6.50;99.90;;;;;;5009116;28;20496;-63
2024/01/04 07:57:58;;;;;;;0.90;0.90;;;6.40;99.90;;;;;;5007994;28;20622;-63
2024/01/04 08:00:24;;;;;;;1.43;1.00;;;6.60;99.90;;;;;;5003443;28;20440;-63
2024/01/04 08:02:51;;;;;;;2.20;1.57;;;6.40;99.90;;;;;;5006905;28;20479;-63
2024/01/04 08:05:20;;;;;;;1.30;1.20;;;6.40;99.90;;;;;;5003199;28;20252;-63
2024/01/04 08:07:46;;;;;;;1.73;0.97;;;6.30;99.90;;;;;;5007937;28;20408;-64
2024/01/04 08:10:15;;;;;;;1.20;1.10;;;6.20;99.90;;;;;;5003588;28;20493;-64
2024/01/04 08:12:45;;;;;;;1.30;1.07;;;6.20;99.90;;;;;;4995047;28;20174;-63
2024/01/04 08:15:11;;;;;;;1.83;1.40;;;6.20;99.90;;;;;;4998289;28;20439;-64
2024/01/04 08:17:37;;;;;;;2.90;1.33;;;6.30;99.90;;;;;;4997394;28;20820;-63
2024/01/04 08:20:04;;;;;;;1.30;1.00;;;6.30;99.90;;;;;;5004744;28;20428;-64
2024/01/04 08:22:30;;;;;;;5.47;1.23;;;6.30;99.90;;;;;;5003600;28;20475;-63
2024/01/04 08:24:56;;;;;;;1.27;1.07;;;6.20;99.90;;;;;;5000273;28;20923;-63
2024/01/04 08:27:21;;;;;;;1.83;1.30;;;6.20;99.90;;;;;;5006476;28;20206;-63
2024/01/04 08:29:48;;;;;;;2.47;0.83;;;6.20;99.90;;;;;;5001184;28;20195;-62
2024/01/04 08:32:17;;;;;;;1.63;1.10;;;6.10;99.90;;;;;;5003975;28;20264;-63
2024/01/04 08:34:43;;;;;;;1.47;1.10;;;6.10;99.90;;;;;;4996891;28;20448;-64
2024/01/04 08:37:10;;;;;;;1.17;1.07;;;6.00;99.90;;;;;;5008237;28;20467;-63
2024/01/04 08:39:35;;;;;;;2.67;1.20;;;5.90;99.90;;;;;;5002974;28;20431;-66
2024/01/04 08:42:01;;;;;;;1.63;1.43;;;5.80;99.90;;;;;;5008916;28;20497;-61
2024/01/04 08:44:27;;;;;;;1.60;1.00;;;5.70;99.90;;;;;;5006918;28;20207;-63
2024/01/04 08:46:53;;;;;;;0.97;0.83;;;5.60;99.90;;;;;;4994311;28;20934;-63
2024/01/04 08:49:19;;;;;;;2.40;0.90;;;5.50;99.90;;;;;;5002670;28;20196;-64
2024/01/04 08:51:45;;;;;;;1.10;0.83;;;5.30;99.90;;;;;;5005088;28;20424;-62
2024/01/04 08:54:10;;;;;;;0.80;0.80;;;5.40;99.90;;;;;;4997547;28;20898;-62
2024/01/04 08:56:36;;;;;;;5.30;0.97;;;5.40;99.90;;;;;;5006249;28;20634;-63
2024/01/04 08:59:03;;;;;;;1.00;0.80;;;5.40;99.90;;;;;;5005929;28;20165;-60
2024/01/04 09:01:29;;;;;;;3.07;0.73;;;5.20;99.90;;;;;;5009819;28;20198;-64
2024/01/04 09:03:55;;;;;;;1.17;1.07;;;5.00;99.90;;;;;;5003758;28;20463;-62
2024/01/04 09:06:21;;;;;;;1.27;0.90;;;5.00;99.90;;;;;;5004734;28;20522;-63
2024/01/04 09:08:47;;;;;;;0.97;0.97;;;5.00;99.90;;;;;;5006354;28;20419;-62
2024/01/04 09:11:13;;;;;;;1.33;0.80;;;5.00;99.90;;;;;;4996127;28;20976;-65
2024/01/04 09:13:38;;;;;;;0.73;0.70;;;5.00;99.90;;;;;;5008773;28;20180;-63
2024/01/04 09:16:04;;;;;;;2.60;1.70;;;5.00;99.90;;;;;;5002441;28;20415;-64
2024/01/04 09:18:33;;;;;;;1.07;0.97;;;5.10;99.90;;;;;;4989574;28;20239;-64
2024/01/04 09:20:58;;;;;;;1.77;1.20;;;5.10;99.90;;;;;;4988760;28;20452;-64
2024/01/04 09:23:24;;;;;;;1.30;1.10;;;5.10;99.90;;;;;;5003564;28;20683;-62
2024/01/04 09:25:50;;;;;;;1.20;1.10;;;5.00;99.90;;;;;;5006053;28;20203;-62
2024/01/04 09:28:16;;;;;;;0.80;0.80;;;5.20;99.90;;;;;;4998997;28;20411;-61
2024/01/04 09:30:41;;;;;;;1.30;1.20;;;5.10;99.90;;;;;;5003517;28;20276;-62
2024/01/04 09:33:07;;;;;;;4.20;0.90;;;5.00;99.90;;;;;;5005627;28;20173;-63
2024/01/04 09:35:33;;;;;;;1.27;1.17;;;5.00;99.90;;;;;;4998907;28;20489;-63
2024/01/04 09:37:58;;;;;;;1.47;1.37;;;5.00;99.90;;;;;;5001631;28;20416;-58
2024/01/04 09:40:24;;;;;;;1.00;0.90;;;4.90;99.90;;;;;;5002145;28;20196;-60
2024/01/04 09:42:54;;;;;;;2.60;1.37;;;4.90;99.90;;;;;;5004966;28;20314;-61
2024/01/04 09:45:22;;;;;;;1.00;0.90;;;4.80;99.90;;;;;;4995385;28;20667;-58
2024/01/04 09:47:53;;;;;;;1.17;1.07;;;4.40;99.90;;;;;;5003422;28;20412;-59
2024/01/04 09:50:21;;;;;;;1.10;1.00;;;4.30;99.90;;;;;;5006580;28;20709;-60
2024/01/04 09:52:51;;;;;;;1.33;1.23;;;4.40;99.90;;;;;;4998915;28;20525;-64
2024/01/04 09:55:20;;;;;;;1.50;1.40;;;4.30;99.90;;;;;;4999601;28;20474;-60
2024/01/04 09:57:46;;;;;;;1.57;1.40;;;4.30;99.90;;;;;;5002687;28;20456;-60
2024/01/04 10:00:12;;;;;;;1.60;1.23;;;4.30;99.90;;;;;;4997587;28;20517;-63
2024/01/04 10:02:42;;;;;;;1.30;1.10;;;4.40;99.90;;;;;;5002651;28;20514;-62
2024/01/04 10:05:13;;;;;;;1.17;1.07;;;4.30;99.90;;;;;;5004258;28;20412;-61
2024/01/04 10:07:43;;;;;;;0.93;0.90;;;4.30;99.90;;;;;;5004176;28;20491;-63
2024/01/04 10:10:16;;;;;;;1.30;1.20;;;4.30;99.90;;;;;;5004131;28;20439;-61
2024/01/04 10:12:42;;;;;;;3.77;1.50;;;4.40;99.90;;;;;;4995727;28;20844;-64
2024/01/04 10:15:11;;;;;;;1.50;1.40;;;4.60;99.90;;;;;;4991669;28;20443;-63
2024/01/04 10:17:38;;;;;;;1.23;1.10;;;4.50;99.90;;;;;;5005021;28;20499;-63
2024/01/04 10:20:05;;;;;;;1.47;1.30;;;4.40;99.90;;;;;;4996908;28;20568;-61
2024/01/04 10:22:30;;;;;;;1.50;1.20;;;4.30;99.90;;;;;;5009222;28;20859;-61
2024/01/04 10:25:07;;;;;;;4.50;1.50;;;4.40;99.90;;;;;;5005795;28;20453;-63
2024/01/04 10:27:32;;;;;;;0.90;0.90;;;4.30;99.90;;;;;;4995149;28;20612;-71
2024/01/04 10:30:06;;;;;;;1.97;1.20;;;4.30;99.90;;;;;;5006036;28;20470;-61
2024/01/04 10:32:32;;;;;;;2.57;1.00;;;4.30;99.90;;;;;;5002848;28;20646;-59
2024/01/04 10:35:06;;;;;;;1.03;0.93;;;4.30;99.90;;;;;;5006484;28;20424;-60
2024/01/04 10:37:33;;;;;;;1.33;1.23;;;4.30;99.90;;;;;;5005284;28;20832;-62
2024/01/04 10:40:03;;;;;;;1.33;1.23;;;4.40;99.90;;;;;;5007342;28;20434;-61
2024/01/04 10:42:29;;;;;;;1.47;1.10;;;4.30;99.90;;;;;;5005346;28;20415;-61
2024/01/04 10:44:56;;;;;;;0.80;0.80;;;4.40;99.90;;;;;;5000989;28;20446;-59
2024/01/04 10:47:23;;;;;;;5.97;3.73;;;4.40;99.90;;;;;;5004667;28;20506;-59
2024/01/04 10:49:56;;;;;;;1.10;1.00;;;4.40;99.90;;;;;;5005024;28;20448;-64
2024/01/04 10:52:23;;;;;;;1.33;1.23;;;4.40;99.90;;;;;;4999401;28;20405;-62
2024/01/04 10:54:51;;;;;;;1.30;1.17;;;4.40;99.90;;;;;;5006401;28;20455;-63
2024/01/04 10:57:18;;;;;;;2.50;1.00;;;4.40;99.90;;;;;;4998122;28;20486;-62
2024/01/04 10:59:45;;;;;;;1.43;1.33;;;4.40;99.90;;;;;;5006582;28;20784;-62
2024/01/04 11:02:15;;;;;;;1.33;1.23;;;4.40;99.90;;;;;;5004102;28;20626;-63
2024/01/04 11:04:41;;;;;;;1.40;1.30;;;4.40;99.90;;;;;;5005547;28;20561;-62
2024/01/04 11:07:07;;;;;;;1.10;1.00;;;4.40;99.90;;;;;;4993481;28;20852;-64
2024/01/04 11:09:35;;;;;;;1.10;1.00;;;4.40;99.90;;;;;;4993765;28;20436;-64
2024/01/04 11:12:03;;;;;;;1.17;0.80;;;4.20;99.90;;;;;;4997397;28;20422;-64
2024/01/04 11:14:29;;;;;;;2.33;0.90;;;4.30;99.90;;;;;;4999598;28;20985;-62
2024/01/04 11:17:00;;;;;;;1.53;1.30;;;4.30;99.90;;;;;;5004552;28;20423;-63
2024/01/04 11:20:00;;;;;;;1.10;1.00;;;4.30;99.90;;;;;;5001652;28;20251;-63
2024/01/04 11:22:42;;;;;;;1.10;1.00;;;4.30;99.90;;;;;;5003609;28;20418;-62
2024/01/04 11:25:20;;;;;;;1.00;1.00;;;4.30;99.90;;;;;;4985217;28;20435;-64
2024/01/04 11:27:47;;;;;;;1.40;1.30;;;4.20;99.90;;;;;;4984673;28;20503;-63
2024/01/04 11:30:13;;;;;;;1.73;1.63;;;4.30;99.90;;;;;;5008859;28;20900;-63
2024/01/04 11:32:42;;;;;;;2.00;1.10;;;4.30;99.90;;;;;;4976888;28;20441;-64
2024/01/04 11:35:10;;;;;;;1.03;1.00;;;4.10;99.90;;;;;;4981593;28;20878;-66
2024/01/04 11:37:36;;;;;;;1.00;0.90;;;4.00;99.90;;;;;;4985200;28;20973;-64
2024/01/04 11:40:06;;;;;;;1.00;0.90;;;4.00;99.90;;;;;;4986226;28;20435;-64
2024/01/04 11:42:37;;;;;;;1.80;1.23;;;4.00;99.90;;;;;;4976025;28;20181;-66
2024/01/04 11:45:04;;;;;;;1.13;1.03;;;4.10;99.90;;;;;;4987461;28;20423;-66
2024/01/04 11:47:41;;;;;;;4.27;1.50;;;4.00;99.90;;;;;;4978316;28;20823;-66
2024/01/04 11:50:16;;;;;;;1.30;1.10;;;4.00;99.90;;;;;;4981752;28;20492;-67
2024/01/04 11:52:48;;;;;;;2.00;1.40;;;4.00;99.90;;;;;;4975729;28;20775;-64
2024/01/04 11:55:28;;;;;;;1.60;1.40;;;4.00;99.90;;;;;;4981906;28;20436;-61
2024/01/04 11:58:10;;;;;;;2.37;1.20;;;3.90;99.90;;;;;;4975306;28;20429;-66
2024/01/04 12:00:38;;;;;;;1.40;1.17;;;3.70;99.90;;;;;;4987427;28;20467;-64
2024/01/04 12:03:17;;;;;;;1.20;1.10;;;3.70;99.90;;;;;;4998626;28;20989;-64
2024/01/04 12:05:45;;;;;;;1.50;1.17;;;3.70;99.90;;;;;;4995349;28;20424;-65
2024/01/04 12:08:22;;;;;;;2.43;2.33;;;3.60;99.90;;;;;;5001647;28;20433;-64
2024/01/04 12:10:54;;;;;;;2.63;1.10;;;3.50;99.90;;;;;;5001479;28;20810;-63
2024/01/04 12:13:20;;;;;;;1.97;1.57;;;3.40;99.90;;;;;;5006310;28;20427;-64
2024/01/04 12:15:46;;;;;;;1.43;1.20;;;3.40;99.90;;;;;;4990202;28;20411;-65
2024/01/04 12:18:12;;;;;;;1.57;1.43;;;3.50;99.90;;;;;;4998657;28;20498;-64
2024/01/04 12:20:38;;;;;;;1.47;1.27;;;3.40;99.90;;;;;;4993393;28;20215;-65
2024/01/04 12:23:06;;;;;;;1.00;1.00;;;3.40;99.90;;;;;;4993378;28;20489;-65
2024/01/04 12:25:34;;;;;;;1.60;1.20;;;3.40;99.90;;;;;;4985607;28;20476;-65
2024/01/04 12:28:01;;;;;;;2.03;1.80;;;3.30;99.90;;;;;;4993273;28;20530;-64
2024/01/04 12:30:28;;;;;;;1.50;1.30;;;3.30;99.90;;;;;;4996682;28;20781;-63
2024/01/04 12:32:56;;;;;;;1.60;1.50;;;3.30;99.90;;;;;;4999826;28;20416;-64
2024/01/04 12:35:21;;;;;;;1.30;1.13;;;3.40;99.90;;;;;;5001454;28;20833;-64
2024/01/04 12:38:01;;;;;;;2.40;2.20;;;3.40;99.90;;;;;;4997550;28;20442;-62
2024/01/04 12:40:27;;;;;;;1.30;1.20;;;3.30;99.90;;;;;;5002516;28;20292;-63
2024/01/04 12:42:53;;;;;;;1.00;0.90;;;3.30;99.90;;;;;;5001565;28;20460;-63
2024/01/04 12:45:18;;;;;;;1.27;1.17;;;3.30;99.90;;;;;;4987492;28;20432;-64
2024/01/04 12:47:44;;;;;;;8.53;5.13;;;3.30;99.90;;;;;;5008145;28;20176;-63
2024/01/04 12:50:10;;;;;;;3.17;2.87;;;3.30;99.90;;;;;;4998506;28;20208;-62
2024/01/04 12:52:40;;;;;;;1.73;1.20;;;3.90;99.90;;;;;;5007536;28;20180;-64
2024/01/04 12:55:05;;;;;;;1.33;1.23;;;3.60;99.90;;;;;;4995548;28;20538;-64
2024/01/04 12:57:31;;;;;;;1.90;1.40;;;3.30;99.90;;;;;;4997073;28;20512;-63